sensor_id;sensor_type;location;lat;lon;timestamp;temperature;humidity
336;DHT22;156;48.738;9.228;2024-02-16T00:00:25;10.80;1.00
336;DHT22;156;48.738;9.228;2024-02-16T00:02:52;10.90;1.00
336;DHT22;156;48.738;9.228;2024-02-16T00:05:19;10.90;1.00
336;DHT22;156;48.738;9.228;2024-02-16T00:07:47;11.00;1.00
336;DHT22;156;48.738;9.228;2024-02-16T00:10:14;11.00;1.00
336;DHT22;156;48.738;9.228;2024-02-16T00:12:43;11.00;1.00
336;DHT22;156;48.738;9.228;2024-02-16T00:15:10;11.00;1.00
336;DHT22;156;48.738;9.228;2024-02-16T00:17:39;11.00;1.00
336;DHT22;156;48.738;9.228;2024-02-16T00:20:07;11.00;1.00
336;DHT22;156;48.738;9.228;2024-02-16T00:22:35;11.00;1.00
336;DHT22;156;48.738;9.228;2024-02-16T00:25:02;11.10;99.90
336;DHT22;156;48.738;9.228;2024-02-16T00:27:29;11.10;99.90
336;DHT22;156;48.738;9.228;2024-02-16T00:29:56;11.10;99.90
336;DHT22;156;48.738;9.228;2024-02-16T00:32:23;11.10;99.90
336;DHT22;156;48.738;9.228;2024-02-16T00:34:57;11.00;99.90
336;DHT22;156;48.738;9.228;2024-02-16T00:37:24;11.00;99.90
336;DHT22;156;48.738;9.228;2024-02-16T00:39:51;11.00;99.90
336;DHT22;156;48.738;9.228;2024-02-16T00:42:20;11.10;99.90
336;DHT22;156;48.738;9.228;2024-02-16T00:44:48;11.00;99.90
336;DHT22;156;48.738;9.228;2024-02-16T00:47:15;11.00;99.90
336;DHT22;156;48.738;9.228;2024-02-16T00:49:43;11.00;99.90
336;DHT22;156;48.738;9.228;2024-02-16T00:52:11;10.90;99.90
336;DHT22;156;48.738;9.228;2024-02-16T00:54:38;10.90;99.90
336;DHT22;156;48.738;9.228;2024-02-16T00:57:05;10.90;99.90
336;DHT22;156;48.738;9.228;2024-02-16T00:59:32;10.90;99.90
336;DHT22;156;48.738;9.228;2024-02-16T01:01:59;10.90;99.90
336;DHT22;156;48.738;9.228;2024-02-16T01:04:25;10.90;99.90
336;DHT22;156;48.738;9.228;2024-02-16T01:06:52;11.00;99.90
336;DHT22;156;48.738;9.228;2024-02-16T01:09:20;10.90;99.90
336;DHT22;156;48.738;9.228;2024-02-16T01:11:47;10.90;99.90
336;DHT22;156;48.738;9.228;2024-02-16T01:14:14;10.90;99.90
336;DHT22;156;48.738;9.228;2024-02-16T01:16:41;10.90;99.90
336;DHT22;156;48.738;9.228;2024-02-16T01:19:08;10.90;99.90
336;DHT22;156;48.738;9.228;2024-02-16T01:21:35;10.80;99.90
336;DHT22;156;48.738;9.228;2024-02-16T01:24:02;10.90;99.90
336;DHT22;156;48.738;9.228;2024-02-16T01:26:31;10.80;99.90
336;DHT22;156;48.738;9.228;2024-02-16T01:28:58;10.90;99.90
336;DHT22;156;48.738;9.228;2024-02-16T01:31:25;11.00;99.90
336;DHT22;156;48.738;9.228;2024-02-16T01:33:52;11.20;99.90
336;DHT22;156;48.738;9.228;2024-02-16T01:36:19;11.30;99.90
336;DHT22;156;48.738;9.228;2024-02-16T01:38:46;11.30;95.40
336;DHT22;156;48.738;9.228;2024-02-16T01:41:13;11.30;78.70
336;DHT22;156;48.738;9.228;2024-02-16T01:43:42;11.30;75.40
336;DHT22;156;48.738;9.228;2024-02-16T01:46:09;11.40;56.40
336;DHT22;156;48.738;9.228;2024-02-16T01:48:36;11.40;58.40
336;DHT22;156;48.738;9.228;2024-02-16T01:51:06;11.40;58.70
336;DHT22;156;48.738;9.228;2024-02-16T01:53:33;11.40;42.00
336;DHT22;156;48.738;9.228;2024-02-16T01:56:02;11.40;38.10
336;DHT22;156;48.738;9.228;2024-02-16T01:58:29;11.50;10.10
336;DHT22;156;48.738;9.228;2024-02-16T02:00:57;11.50;1.00
336;DHT22;156;48.738;9.228;2024-02-16T02:03:24;11.60;1.00
336;DHT22;156;48.738;9.228;2024-02-16T02:05:52;11.50;1.00
336;DHT22;156;48.738;9.228;2024-02-16T02:08:20;11.40;1.00
336;DHT22;156;48.738;9.228;2024-02-16T02:10:47;11.40;13.40
336;DHT22;156;48.738;9.228;2024-02-16T02:13:14;11.40;21.50
336;DHT22;156;48.738;9.228;2024-02-16T02:15:41;11.40;14.80
336;DHT22;156;48.738;9.228;2024-02-16T02:18:10;11.40;31.50
336;DHT22;156;48.738;9.228;2024-02-16T02:20:36;11.40;28.10
336;DHT22;156;48.738;9.228;2024-02-16T02:23:05;11.30;35.90
336;DHT22;156;48.738;9.228;2024-02-16T02:25:32;11.30;90.20
336;DHT22;156;48.738;9.228;2024-02-16T02:27:59;11.30;99.90
336;DHT22;156;48.738;9.228;2024-02-16T02:30:28;11.40;99.90
336;DHT22;156;48.738;9.228;2024-02-16T02:32:55;11.40;99.90
336;DHT22;156;48.738;9.228;2024-02-16T02:35:22;11.50;99.90
336;DHT22;156;48.738;9.228;2024-02-16T02:37:49;11.50;94.40
336;DHT22;156;48.738;9.228;2024-02-16T02:40:18;11.40;99.90
336;DHT22;156;48.738;9.228;2024-02-16T02:42:44;11.20;99.90
336;DHT22;156;48.738;9.228;2024-02-16T02:45:11;11.10;99.90
336;DHT22;156;48.738;9.228;2024-02-16T02:47:38;11.10;99.90
336;DHT22;156;48.738;9.228;2024-02-16T02:50:06;11.00;99.90
336;DHT22;156;48.738;9.228;2024-02-16T02:52:33;11.00;99.90
336;DHT22;156;48.738;9.228;2024-02-16T02:55:00;11.10;99.90
336;DHT22;156;48.738;9.228;2024-02-16T02:57:28;11.10;99.90
336;DHT22;156;48.738;9.228;2024-02-16T03:00:03;11.20;99.90
336;DHT22;156;48.738;9.228;2024-02-16T03:02:31;11.20;99.90
336;DHT22;156;48.738;9.228;2024-02-16T03:04:58;11.20;99.90
336;DHT22;156;48.738;9.228;2024-02-16T03:07:25;11.20;99.90
336;DHT22;156;48.738;9.228;2024-02-16T03:09:52;11.10;99.90
336;DHT22;156;48.738;9.228;2024-02-16T03:12:19;11.10;99.90
336;DHT22;156;48.738;9.228;2024-02-16T03:14:48;11.20;99.90
336;DHT22;156;48.738;9.228;2024-02-16T03:17:14;11.10;99.90
336;DHT22;156;48.738;9.228;2024-02-16T03:19:41;11.20;99.90
336;DHT22;156;48.738;9.228;2024-02-16T03:22:08;11.20;99.90
336;DHT22;156;48.738;9.228;2024-02-16T03:24:35;11.30;99.90
336;DHT22;156;48.738;9.228;2024-02-16T03:27:02;11.20;99.90
336;DHT22;156;48.738;9.228;2024-02-16T03:29:29;11.20;99.90
336;DHT22;156;48.738;9.228;2024-02-16T03:31:57;11.20;99.90
336;DHT22;156;48.738;9.228;2024-02-16T03:34:24;11.20;99.90
336;DHT22;156;48.738;9.228;2024-02-16T03:36:51;11.30;99.90
336;DHT22;156;48.738;9.228;2024-02-16T03:39:18;11.10;99.90
336;DHT22;156;48.738;9.228;2024-02-16T03:41:46;11.00;99.90
336;DHT22;156;48.738;9.228;2024-02-16T03:44:14;10.90;99.90
336;DHT22;156;48.738;9.228;2024-02-16T03:46:41;10.90;99.90
336;DHT22;156;48.738;9.228;2024-02-16T03:49:10;10.70;1.00
336;DHT22;156;48.738;9.228;2024-02-16T03:51:37;10.70;1.00
336;DHT22;156;48.738;9.228;2024-02-16T03:54:04;10.70;1.00
336;DHT22;156;48.738;9.228;2024-02-16T03:56:31;10.70;1.00
336;DHT22;156;48.738;9.228;2024-02-16T03:58:58;10.70;1.00
336;DHT22;156;48.738;9.228;2024-02-16T04:01:25;10.70;1.00
336;DHT22;156;48.738;9.228;2024-02-16T04:03:51;10.60;1.00
336;DHT22;156;48.738;9.228;2024-02-16T04:06:20;10.50;1.00
336;DHT22;156;48.738;9.228;2024-02-16T04:08:47;10.40;1.00
336;DHT22;156;48.738;9.228;2024-02-16T04:11:15;10.30;1.00
336;DHT22;156;48.738;9.228;2024-02-16T04:13:42;10.30;1.00
336;DHT22;156;48.738;9.228;2024-02-16T04:16:09;10.20;1.00
336;DHT22;156;48.738;9.228;2024-02-16T04:18:36;10.20;20.50
336;DHT22;156;48.738;9.228;2024-02-16T04:21:04;10.10;99.90
336;DHT22;156;48.738;9.228;2024-02-16T04:23:32;10.00;99.90
336;DHT22;156;48.738;9.228;2024-02-16T04:25:59;9.90;99.90
336;DHT22;156;48.738;9.228;2024-02-16T04:28:26;9.90;99.90
336;DHT22;156;48.738;9.228;2024-02-16T04:30:53;9.80;1.00
336;DHT22;156;48.738;9.228;2024-02-16T04:33:19;9.80;1.00
336;DHT22;156;48.738;9.228;2024-02-16T04:35:46;9.70;1.00
336;DHT22;156;48.738;9.228;2024-02-16T04:38:16;9.70;1.00
336;DHT22;156;48.738;9.228;2024-02-16T04:40:44;9.70;1.00
336;DHT22;156;48.738;9.228;2024-02-16T04:43:11;9.70;1.00
336;DHT22;156;48.738;9.228;2024-02-16T04:45:38;9.60;1.00
336;DHT22;156;48.738;9.228;2024-02-16T04:48:05;9.60;1.00
336;DHT22;156;48.738;9.228;2024-02-16T04:50:33;9.60;1.00
336;DHT22;156;48.738;9.228;2024-02-16T04:53:00;9.60;1.00
336;DHT22;156;48.738;9.228;2024-02-16T04:55:28;9.60;1.00
336;DHT22;156;48.738;9.228;2024-02-16T04:57:56;9.60;1.00
336;DHT22;156;48.738;9.228;2024-02-16T05:00:24;9.60;1.00
336;DHT22;156;48.738;9.228;2024-02-16T05:02:51;9.50;17.30
336;DHT22;156;48.738;9.228;2024-02-16T05:05:19;9.50;57.60
336;DHT22;156;48.738;9.228;2024-02-16T05:07:49;9.50;1.00
336;DHT22;156;48.738;9.228;2024-02-16T05:10:17;9.50;9.00
336;DHT22;156;48.738;9.228;2024-02-16T05:12:45;9.40;1.00
336;DHT22;156;48.738;9.228;2024-02-16T05:15:13;9.40;1.00
336;DHT22;156;48.738;9.228;2024-02-16T05:17:41;9.40;1.00
336;DHT22;156;48.738;9.228;2024-02-16T05:20:10;9.40;6.20
336;DHT22;156;48.738;9.228;2024-02-16T05:22:41;9.40;1.00
336;DHT22;156;48.738;9.228;2024-02-16T05:25:09;9.40;1.00
336;DHT22;156;48.738;9.228;2024-02-16T05:27:36;9.40;1.00
336;DHT22;156;48.738;9.228;2024-02-16T05:30:04;9.40;1.00
336;DHT22;156;48.738;9.228;2024-02-16T05:32:37;9.50;1.00
336;DHT22;156;48.738;9.228;2024-02-16T05:35:05;9.40;1.00
336;DHT22;156;48.738;9.228;2024-02-16T05:37:37;9.40;1.00
336;DHT22;156;48.738;9.228;2024-02-16T05:40:07;9.40;1.00
336;DHT22;156;48.738;9.228;2024-02-16T05:42:45;9.40;1.00
336;DHT22;156;48.738;9.228;2024-02-16T05:45:13;9.30;1.00
336;DHT22;156;48.738;9.228;2024-02-16T05:47:41;9.40;1.00
336;DHT22;156;48.738;9.228;2024-02-16T05:50:08;9.30;1.00
336;DHT22;156;48.738;9.228;2024-02-16T05:52:37;9.30;1.00
336;DHT22;156;48.738;9.228;2024-02-16T05:55:05;9.30;1.00
336;DHT22;156;48.738;9.228;2024-02-16T05:57:33;9.30;1.00
336;DHT22;156;48.738;9.228;2024-02-16T06:00:00;9.40;1.00
336;DHT22;156;48.738;9.228;2024-02-16T06:02:29;9.40;1.00
336;DHT22;156;48.738;9.228;2024-02-16T06:04:57;9.40;1.00
336;DHT22;156;48.738;9.228;2024-02-16T06:07:24;9.40;1.00
336;DHT22;156;48.738;9.228;2024-02-16T06:09:51;9.40;1.00
336;DHT22;156;48.738;9.228;2024-02-16T06:12:19;9.40;1.00
336;DHT22;156;48.738;9.228;2024-02-16T06:14:47;9.40;1.00
336;DHT22;156;48.738;9.228;2024-02-16T06:17:15;9.50;1.00
336;DHT22;156;48.738;9.228;2024-02-16T06:19:42;9.50;99.90
336;DHT22;156;48.738;9.228;2024-02-16T06:22:10;9.50;99.90
336;DHT22;156;48.738;9.228;2024-02-16T06:24:37;9.60;99.90
336;DHT22;156;48.738;9.228;2024-02-16T06:27:04;9.60;99.90
336;DHT22;156;48.738;9.228;2024-02-16T06:29:31;9.60;99.90
336;DHT22;156;48.738;9.228;2024-02-16T06:31:58;9.60;99.90
336;DHT22;156;48.738;9.228;2024-02-16T06:34:25;9.70;99.90
336;DHT22;156;48.738;9.228;2024-02-16T06:36:52;9.70;99.90
336;DHT22;156;48.738;9.228;2024-02-16T06:39:20;9.70;99.80
336;DHT22;156;48.738;9.228;2024-02-16T06:41:47;9.80;37.70
336;DHT22;156;48.738;9.228;2024-02-16T06:44:15;9.80;1.00
336;DHT22;156;48.738;9.228;2024-02-16T06:46:42;9.80;1.00
336;DHT22;156;48.738;9.228;2024-02-16T06:49:09;9.80;1.00
336;DHT22;156;48.738;9.228;2024-02-16T06:51:36;9.80;1.00
336;DHT22;156;48.738;9.228;2024-02-16T06:54:03;9.90;1.00
336;DHT22;156;48.738;9.228;2024-02-16T06:56:32;9.90;1.00
336;DHT22;156;48.738;9.228;2024-02-16T06:58:58;10.00;1.00
336;DHT22;156;48.738;9.228;2024-02-16T07:01:25;10.10;1.00
336;DHT22;156;48.738;9.228;2024-02-16T07:03:53;10.10;1.00
336;DHT22;156;48.738;9.228;2024-02-16T07:06:20;10.20;1.00
336;DHT22;156;48.738;9.228;2024-02-16T07:08:47;10.30;1.00
336;DHT22;156;48.738;9.228;2024-02-16T07:11:14;10.30;1.00
336;DHT22;156;48.738;9.228;2024-02-16T07:13:43;10.40;1.00
336;DHT22;156;48.738;9.228;2024-02-16T07:16:10;10.40;1.00
336;DHT22;156;48.738;9.228;2024-02-16T07:18:37;10.40;1.00
336;DHT22;156;48.738;9.228;2024-02-16T07:21:04;10.40;1.00
336;DHT22;156;48.738;9.228;2024-02-16T07:23:32;10.40;1.00
336;DHT22;156;48.738;9.228;2024-02-16T07:25:59;10.40;1.00
336;DHT22;156;48.738;9.228;2024-02-16T07:28:27;10.30;1.00
336;DHT22;156;48.738;9.228;2024-02-16T07:30:56;10.30;1.00
336;DHT22;156;48.738;9.228;2024-02-16T07:33:23;10.30;1.00
336;DHT22;156;48.738;9.228;2024-02-16T07:35:53;10.30;1.00
336;DHT22;156;48.738;9.228;2024-02-16T07:38:21;10.30;1.00
336;DHT22;156;48.738;9.228;2024-02-16T07:40:48;10.30;1.00
336;DHT22;156;48.738;9.228;2024-02-16T07:43:16;10.30;1.00
336;DHT22;156;48.738;9.228;2024-02-16T07:45:44;10.40;1.00
336;DHT22;156;48.738;9.228;2024-02-16T07:48:12;10.50;1.00
336;DHT22;156;48.738;9.228;2024-02-16T07:50:39;10.50;1.00
336;DHT22;156;48.738;9.228;2024-02-16T07:53:06;10.50;1.00
336;DHT22;156;48.738;9.228;2024-02-16T07:55:35;10.50;1.00
336;DHT22;156;48.738;9.228;2024-02-16T07:58:02;10.50;1.00
336;DHT22;156;48.738;9.228;2024-02-16T08:00:29;10.50;1.00
336;DHT22;156;48.738;9.228;2024-02-16T08:02:56;10.40;1.00
336;DHT22;156;48.738;9.228;2024-02-16T08:05:24;10.50;1.00
336;DHT22;156;48.738;9.228;2024-02-16T08:07:52;10.50;1.00
336;DHT22;156;48.738;9.228;2024-02-16T08:10:19;10.40;1.00
336;DHT22;156;48.738;9.228;2024-02-16T08:12:47;10.50;1.00
336;DHT22;156;48.738;9.228;2024-02-16T08:15:14;10.40;1.00
336;DHT22;156;48.738;9.228;2024-02-16T08:17:41;10.50;1.00
336;DHT22;156;48.738;9.228;2024-02-16T08:20:09;10.50;1.00
336;DHT22;156;48.738;9.228;2024-02-16T08:22:37;10.60;1.00
336;DHT22;156;48.738;9.228;2024-02-16T08:25:06;10.60;1.00
336;DHT22;156;48.738;9.228;2024-02-16T08:27:33;10.80;1.00
336;DHT22;156;48.738;9.228;2024-02-16T08:30:00;10.90;1.00
336;DHT22;156;48.738;9.228;2024-02-16T08:32:27;10.90;1.00
336;DHT22;156;48.738;9.228;2024-02-16T08:34:55;11.10;1.00
336;DHT22;156;48.738;9.228;2024-02-16T08:37:24;11.20;1.00
336;DHT22;156;48.738;9.228;2024-02-16T08:39:52;11.30;99.90
336;DHT22;156;48.738;9.228;2024-02-16T08:42:20;11.40;99.90
336;DHT22;156;48.738;9.228;2024-02-16T08:44:48;11.50;99.90
336;DHT22;156;48.738;9.228;2024-02-16T08:47:15;11.50;99.90
336;DHT22;156;48.738;9.228;2024-02-16T08:49:42;11.60;99.90
336;DHT22;156;48.738;9.228;2024-02-16T08:52:09;11.70;99.90
336;DHT22;156;48.738;9.228;2024-02-16T08:54:36;11.90;99.90
336;DHT22;156;48.738;9.228;2024-02-16T08:57:04;12.00;99.90
336;DHT22;156;48.738;9.228;2024-02-16T08:59:33;12.20;99.90
336;DHT22;156;48.738;9.228;2024-02-16T09:02:01;12.20;99.90
336;DHT22;156;48.738;9.228;2024-02-16T09:04:27;12.40;99.90
336;DHT22;156;48.738;9.228;2024-02-16T09:06:54;12.50;99.90
336;DHT22;156;48.738;9.228;2024-02-16T09:09:21;12.60;99.90
336;DHT22;156;48.738;9.228;2024-02-16T09:11:51;12.70;99.90
336;DHT22;156;48.738;9.228;2024-02-16T09:14:23;12.90;99.90
336;DHT22;156;48.738;9.228;2024-02-16T09:16:50;13.00;99.90
336;DHT22;156;48.738;9.228;2024-02-16T09:19:18;13.20;99.90
336;DHT22;156;48.738;9.228;2024-02-16T09:21:45;13.40;99.90
336;DHT22;156;48.738;9.228;2024-02-16T09:24:12;13.50;99.90
336;DHT22;156;48.738;9.228;2024-02-16T09:26:43;13.60;99.90
336;DHT22;156;48.738;9.228;2024-02-16T09:29:11;13.80;51.70
336;DHT22;156;48.738;9.228;2024-02-16T09:31:40;14.00;28.90
336;DHT22;156;48.738;9.228;2024-02-16T09:34:07;14.10;1.00
336;DHT22;156;48.738;9.228;2024-02-16T09:36:34;14.20;1.00
336;DHT22;156;48.738;9.228;2024-02-16T09:39:02;14.40;1.00
336;DHT22;156;48.738;9.228;2024-02-16T09:41:31;14.60;1.00
336;DHT22;156;48.738;9.228;2024-02-16T09:43:58;14.60;1.00
336;DHT22;156;48.738;9.228;2024-02-16T09:46:24;14.80;1.00
336;DHT22;156;48.738;9.228;2024-02-16T09:48:54;14.90;1.00
336;DHT22;156;48.738;9.228;2024-02-16T09:51:21;15.10;1.00
336;DHT22;156;48.738;9.228;2024-02-16T09:53:50;15.20;1.00
336;DHT22;156;48.738;9.228;2024-02-16T09:56:19;15.40;1.00
336;DHT22;156;48.738;9.228;2024-02-16T09:58:46;15.50;1.00
336;DHT22;156;48.738;9.228;2024-02-16T10:01:18;15.50;1.00
336;DHT22;156;48.738;9.228;2024-02-16T10:03:46;15.60;1.00
336;DHT22;156;48.738;9.228;2024-02-16T10:06:15;15.70;1.00
336;DHT22;156;48.738;9.228;2024-02-16T10:08:49;15.90;1.00
336;DHT22;156;48.738;9.228;2024-02-16T10:11:17;15.90;1.00
336;DHT22;156;48.738;9.228;2024-02-16T10:13:54;16.10;1.00
336;DHT22;156;48.738;9.228;2024-02-16T10:16:22;16.10;1.00
336;DHT22;156;48.738;9.228;2024-02-16T10:18:49;16.00;1.00
336;DHT22;156;48.738;9.228;2024-02-16T10:21:25;16.00;1.00
336;DHT22;156;48.738;9.228;2024-02-16T10:23:59;16.00;1.00
336;DHT22;156;48.738;9.228;2024-02-16T10:26:26;16.00;1.00
336;DHT22;156;48.738;9.228;2024-02-16T10:28:55;16.00;1.00
336;DHT22;156;48.738;9.228;2024-02-16T10:31:23;16.00;1.00
336;DHT22;156;48.738;9.228;2024-02-16T10:33:56;16.10;1.00
336;DHT22;156;48.738;9.228;2024-02-16T10:36:26;16.20;1.00
336;DHT22;156;48.738;9.228;2024-02-16T10:38:54;16.20;1.00
336;DHT22;156;48.738;9.228;2024-02-16T10:41:26;16.40;1.00
336;DHT22;156;48.738;9.228;2024-02-16T10:43:54;16.60;1.00
336;DHT22;156;48.738;9.228;2024-02-16T10:46:22;16.50;1.00
336;DHT22;156;48.738;9.228;2024-02-16T10:48:49;16.50;1.00
336;DHT22;156;48.738;9.228;2024-02-16T10:51:20;16.30;1.00
336;DHT22;156;48.738;9.228;2024-02-16T10:53:52;16.00;1.00
336;DHT22;156;48.738;9.228;2024-02-16T10:56:27;16.10;99.90
336;DHT22;156;48.738;9.228;2024-02-16T10:58:55;16.10;1.00
336;DHT22;156;48.738;9.228;2024-02-16T11:01:22;16.20;1.00
336;DHT22;156;48.738;9.228;2024-02-16T11:03:49;16.40;1.00
336;DHT22;156;48.738;9.228;2024-02-16T11:06:26;16.30;99.90
336;DHT22;156;48.738;9.228;2024-02-16T11:09:00;16.30;99.90
336;DHT22;156;48.738;9.228;2024-02-16T11:11:27;16.10;99.90
336;DHT22;156;48.738;9.228;2024-02-16T11:13:55;15.90;99.90
336;DHT22;156;48.738;9.228;2024-02-16T11:16:23;15.90;99.90
336;DHT22;156;48.738;9.228;2024-02-16T11:18:51;16.00;1.00
336;DHT22;156;48.738;9.228;2024-02-16T11:21:18;16.10;1.00
336;DHT22;156;48.738;9.228;2024-02-16T11:23:44;16.10;99.90
336;DHT22;156;48.738;9.228;2024-02-16T11:26:13;16.10;99.90
336;DHT22;156;48.738;9.228;2024-02-16T11:28:41;16.20;99.90
336;DHT22;156;48.738;9.228;2024-02-16T11:31:09;16.40;99.90
336;DHT22;156;48.738;9.228;2024-02-16T11:33:36;16.40;99.90
336;DHT22;156;48.738;9.228;2024-02-16T11:36:04;16.30;99.90
336;DHT22;156;48.738;9.228;2024-02-16T11:38:31;16.50;99.90
336;DHT22;156;48.738;9.228;2024-02-16T11:41:01;16.50;99.90
336;DHT22;156;48.738;9.228;2024-02-16T11:43:30;16.50;99.90
336;DHT22;156;48.738;9.228;2024-02-16T11:45:58;16.50;99.90
336;DHT22;156;48.738;9.228;2024-02-16T11:48:26;16.60;99.90
336;DHT22;156;48.738;9.228;2024-02-16T11:51:00;16.90;99.90
336;DHT22;156;48.738;9.228;2024-02-16T11:53:27;16.80;99.90
336;DHT22;156;48.738;9.228;2024-02-16T11:55:54;16.90;99.90
336;DHT22;156;48.738;9.228;2024-02-16T11:58:22;17.00;99.90
336;DHT22;156;48.738;9.228;2024-02-16T12:00:51;17.30;99.90
336;DHT22;156;48.738;9.228;2024-02-16T12:03:19;17.40;99.90
336;DHT22;156;48.738;9.228;2024-02-16T12:05:51;17.40;99.90
336;DHT22;156;48.738;9.228;2024-02-16T12:08:20;17.80;99.90
336;DHT22;156;48.738;9.228;2024-02-16T12:10:48;18.00;99.90
336;DHT22;156;48.738;9.228;2024-02-16T12:13:16;18.10;99.90
336;DHT22;156;48.738;9.228;2024-02-16T12:15:44;18.20;99.90
336;DHT22;156;48.738;9.228;2024-02-16T12:18:19;18.20;99.90
336;DHT22;156;48.738;9.228;2024-02-16T12:20:56;18.10;99.90
336;DHT22;156;48.738;9.228;2024-02-16T12:23:23;18.10;99.90
336;DHT22;156;48.738;9.228;2024-02-16T12:25:50;18.30;99.90
336;DHT22;156;48.738;9.228;2024-02-16T12:28:23;18.20;99.90
336;DHT22;156;48.738;9.228;2024-02-16T12:30:50;18.50;99.90
336;DHT22;156;48.738;9.228;2024-02-16T12:33:19;18.60;99.90
336;DHT22;156;48.738;9.228;2024-02-16T12:35:47;18.50;99.90
336;DHT22;156;48.738;9.228;2024-02-16T12:38:14;18.30;99.90
336;DHT22;156;48.738;9.228;2024-02-16T12:40:42;18.10;99.90
336;DHT22;156;48.738;9.228;2024-02-16T12:43:09;18.10;99.90
336;DHT22;156;48.738;9.228;2024-02-16T12:45:38;18.10;99.90
336;DHT22;156;48.738;9.228;2024-02-16T12:48:05;18.20;99.90
336;DHT22;156;48.738;9.228;2024-02-16T12:50:37;18.20;99.90
336;DHT22;156;48.738;9.228;2024-02-16T12:53:08;18.10;99.90
336;DHT22;156;48.738;9.228;2024-02-16T12:55:35;17.90;99.90
336;DHT22;156;48.738;9.228;2024-02-16T12:58:03;17.40;99.90
336;DHT22;156;48.738;9.228;2024-02-16T13:00:30;17.10;99.90
336;DHT22;156;48.738;9.228;2024-02-16T13:02:57;17.00;99.90
336;DHT22;156;48.738;9.228;2024-02-16T13:05:24;17.00;99.90
336;DHT22;156;48.738;9.228;2024-02-16T13:07:52;17.00;99.90
336;DHT22;156;48.738;9.228;2024-02-16T13:10:19;17.20;99.90
336;DHT22;156;48.738;9.228;2024-02-16T13:12:46;17.10;99.90
336;DHT22;156;48.738;9.228;2024-02-16T13:15:13;17.20;99.90
336;DHT22;156;48.738;9.228;2024-02-16T13:17:39;17.10;99.90
336;DHT22;156;48.738;9.228;2024-02-16T13:20:07;17.20;99.90
336;DHT22;156;48.738;9.228;2024-02-16T13:22:35;17.10;99.90
336;DHT22;156;48.738;9.228;2024-02-16T13:25:03;17.20;99.90
336;DHT22;156;48.738;9.228;2024-02-16T13:27:31;17.20;99.90
336;DHT22;156;48.738;9.228;2024-02-16T13:29:58;17.30;99.90
336;DHT22;156;48.738;9.228;2024-02-16T13:32:24;17.10;1.00
336;DHT22;156;48.738;9.228;2024-02-16T13:34:51;17.20;1.00
336;DHT22;156;48.738;9.228;2024-02-16T13:37:18;17.40;1.00
336;DHT22;156;48.738;9.228;2024-02-16T13:39:45;17.30;1.00
336;DHT22;156;48.738;9.228;2024-02-16T13:42:14;17.30;1.00
336;DHT22;156;48.738;9.228;2024-02-16T13:44:41;17.30;1.00
336;DHT22;156;48.738;9.228;2024-02-16T13:47:08;17.20;1.00
336;DHT22;156;48.738;9.228;2024-02-16T13:49:35;17.10;1.00
336;DHT22;156;48.738;9.228;2024-02-16T13:52:01;17.00;1.00
336;DHT22;156;48.738;9.228;2024-02-16T13:54:28;17.00;1.00
336;DHT22;156;48.738;9.228;2024-02-16T13:56:55;16.90;1.00
336;DHT22;156;48.738;9.228;2024-02-16T13:59:23;16.90;1.00
336;DHT22;156;48.738;9.228;2024-02-16T14:01:50;16.70;1.00
336;DHT22;156;48.738;9.228;2024-02-16T14:04:17;16.70;1.00
336;DHT22;156;48.738;9.228;2024-02-16T14:06:45;16.60;1.00
336;DHT22;156;48.738;9.228;2024-02-16T14:09:12;16.50;1.00
336;DHT22;156;48.738;9.228;2024-02-16T14:11:39;16.40;1.00
336;DHT22;156;48.738;9.228;2024-02-16T14:14:08;16.40;1.00
336;DHT22;156;48.738;9.228;2024-02-16T14:16:36;16.40;1.00
336;DHT22;156;48.738;9.228;2024-02-16T14:19:04;16.30;1.00
336;DHT22;156;48.738;9.228;2024-02-16T14:21:30;16.30;1.00
336;DHT22;156;48.738;9.228;2024-02-16T14:23:58;16.40;1.00
336;DHT22;156;48.738;9.228;2024-02-16T14:26:25;16.40;1.00
336;DHT22;156;48.738;9.228;2024-02-16T14:28:52;16.30;1.00
336;DHT22;156;48.738;9.228;2024-02-16T14:31:20;16.30;1.00
336;DHT22;156;48.738;9.228;2024-02-16T14:33:49;16.20;1.00
336;DHT22;156;48.738;9.228;2024-02-16T14:36:16;16.40;1.00
336;DHT22;156;48.738;9.228;2024-02-16T14:38:42;16.30;1.00
336;DHT22;156;48.738;9.228;2024-02-16T14:41:09;16.30;1.00
336;DHT22;156;48.738;9.228;2024-02-16T14:43:36;16.40;1.00
336;DHT22;156;48.738;9.228;2024-02-16T14:46:03;16.30;1.00
336;DHT22;156;48.738;9.228;2024-02-16T14:48:30;16.30;1.00
336;DHT22;156;48.738;9.228;2024-02-16T14:50:59;16.30;1.00
336;DHT22;156;48.738;9.228;2024-02-16T14:53:26;16.40;1.00
336;DHT22;156;48.738;9.228;2024-02-16T14:55:55;16.40;1.00
336;DHT22;156;48.738;9.228;2024-02-16T14:58:22;16.40;1.00
336;DHT22;156;48.738;9.228;2024-02-16T15:00:49;16.40;1.00
336;DHT22;156;48.738;9.228;2024-02-16T15:03:16;16.40;1.00
336;DHT22;156;48.738;9.228;2024-02-16T15:05:45;16.30;1.00
336;DHT22;156;48.738;9.228;2024-02-16T15:08:13;16.30;1.00
336;DHT22;156;48.738;9.228;2024-02-16T15:10:40;16.20;1.00
336;DHT22;156;48.738;9.228;2024-02-16T15:13:08;16.20;1.00
336;DHT22;156;48.738;9.228;2024-02-16T15:15:35;16.10;1.00
336;DHT22;156;48.738;9.228;2024-02-16T15:18:02;16.00;1.00
336;DHT22;156;48.738;9.228;2024-02-16T15:20:30;16.00;1.00
336;DHT22;156;48.738;9.228;2024-02-16T15:22:57;16.10;1.00
336;DHT22;156;48.738;9.228;2024-02-16T15:25:25;16.10;1.00
336;DHT22;156;48.738;9.228;2024-02-16T15:27:52;15.90;1.00
336;DHT22;156;48.738;9.228;2024-02-16T15:30:20;16.00;1.00
336;DHT22;156;48.738;9.228;2024-02-16T15:32:47;16.00;1.00
336;DHT22;156;48.738;9.228;2024-02-16T15:35:14;15.90;1.00
336;DHT22;156;48.738;9.228;2024-02-16T15:37:42;15.90;1.00
336;DHT22;156;48.738;9.228;2024-02-16T15:40:11;15.90;1.00
336;DHT22;156;48.738;9.228;2024-02-16T15:42:40;15.80;1.00
336;DHT22;156;48.738;9.228;2024-02-16T15:45:08;15.80;1.00
336;DHT22;156;48.738;9.228;2024-02-16T15:47:36;15.80;1.00
336;DHT22;156;48.738;9.228;2024-02-16T15:50:05;15.90;1.00
336;DHT22;156;48.738;9.228;2024-02-16T15:52:32;15.90;1.00
336;DHT22;156;48.738;9.228;2024-02-16T15:54:59;15.90;1.00
336;DHT22;156;48.738;9.228;2024-02-16T15:57:26;15.90;1.00
336;DHT22;156;48.738;9.228;2024-02-16T15:59:54;15.80;1.00
336;DHT22;156;48.738;9.228;2024-02-16T16:02:21;15.80;1.00
336;DHT22;156;48.738;9.228;2024-02-16T16:04:48;15.70;1.00
336;DHT22;156;48.738;9.228;2024-02-16T16:07:15;15.60;1.00
336;DHT22;156;48.738;9.228;2024-02-16T16:09:42;15.60;1.00
336;DHT22;156;48.738;9.228;2024-02-16T16:12:09;15.60;28.80
336;DHT22;156;48.738;9.228;2024-02-16T16:14:36;15.60;56.50
336;DHT22;156;48.738;9.228;2024-02-16T16:17:04;15.50;84.80
336;DHT22;156;48.738;9.228;2024-02-16T16:19:31;15.50;84.20
336;DHT22;156;48.738;9.228;2024-02-16T16:21:58;15.30;99.90
336;DHT22;156;48.738;9.228;2024-02-16T16:24:25;15.30;99.90
336;DHT22;156;48.738;9.228;2024-02-16T16:26:52;15.30;99.90
336;DHT22;156;48.738;9.228;2024-02-16T16:29:19;15.30;99.90
336;DHT22;156;48.738;9.228;2024-02-16T16:31:46;15.30;99.90
336;DHT22;156;48.738;9.228;2024-02-16T16:34:14;15.40;99.90
336;DHT22;156;48.738;9.228;2024-02-16T16:36:41;15.30;99.90
336;DHT22;156;48.738;9.228;2024-02-16T16:39:08;15.40;99.90
336;DHT22;156;48.738;9.228;2024-02-16T16:41:35;15.40;99.90
336;DHT22;156;48.738;9.228;2024-02-16T16:44:02;15.40;99.90
336;DHT22;156;48.738;9.228;2024-02-16T16:46:29;15.40;99.90
336;DHT22;156;48.738;9.228;2024-02-16T16:48:56;15.40;99.90